Wetterdaten: Woche 07.05.12 - 13.05.12 (KW19)
Datum Zeit Temp. Innen Temp. Aussen UV X Diff Temp. Feuchte Inne Feuchte Auss Sonnenschein Luftdruck Regen ab 0,1 Wind Sonnenschein T Regendauer Windben
07.05.2012 00:00 17,6 C 7,4 C 0,0 UV-I 0,0 C 55 % 94 % 0 % 1015,0 hPa 0,0 l/m 5,9 km/h (2 Bft) 0,00 h 0,00 h 11,0 km/h (2 Bft)
07.05.2012 01:00 17,5 C 7,3 C 0,0 UV-I 0,0 C 55 % 94 % 0 % 1015,2 hPa 0,0 l/m 3,1 km/h (1 Bft) 0,00 h 0,00 h 5,1 km/h (1 Bft)
07.05.2012 02:00 17,5 C 7,3 C 0,0 UV-I 0,0 C 55 % 94 % 0 % 1015,0 hPa 0,0 l/m 4,9 km/h (1 Bft) 0,00 h 0,00 h 7,9 km/h (2 Bft)
07.05.2012 03:00 17,5 C 7,3 C 0,0 UV-I 0,0 C 55 % 93 % 0 % 1015,6 hPa 0,0 l/m 2,8 km/h (1 Bft) 0,00 h 0,00 h 6,0 km/h (2 Bft)
07.05.2012 04:00 17,4 C 7,2 C 0,0 UV-I 0,0 C 55 % 93 % 0 % 1015,8 hPa 0,0 l/m 1,8 km/h (1 Bft) 0,00 h 0,00 h 4,7 km/h (1 Bft)
07.05.2012 05:00 17,4 C 7,1 C 0,0 UV-I 0,0 C 55 % 93 % 0 % 1016,0 hPa 0,0 l/m 4,1 km/h (1 Bft) 0,00 h 0,00 h 7,7 km/h (2 Bft)
07.05.2012 06:00 17,3 C 6,9 C 0,0 UV-I 0,0 C 54 % 93 % 0 % 1016,5 hPa 0,0 l/m 4,3 km/h (1 Bft) 0,00 h 0,00 h 8,4 km/h (2 Bft)
07.05.2012 07:00 17,2 C 6,9 C 0,0 UV-I 0,1 C 55 % 92 % 3 % 1017,1 hPa 0,0 l/m 4,0 km/h (1 Bft) 0,00 h 0,00 h 6,8 km/h (2 Bft)
07.05.2012 08:00 17,4 C 7,4 C 0,0 UV-I 1,4 C 54 % 92 % 41 % 1017,3 hPa 0,0 l/m 2,5 km/h (1 Bft) 0,00 h 0,00 h 5,2 km/h (1 Bft)
07.05.2012 09:00 17,6 C 8,3 C 0,1 UV-I 3,1 C 54 % 90 % 85 % 1017,7 hPa 0,0 l/m 1,6 km/h (1 Bft) 0,57 h 0,00 h 3,7 km/h (1 Bft)
07.05.2012 10:00 17,8 C 9,2 C 0,3 UV-I 2,7 C 54 % 87 % 77 % 1017,7 hPa 0,0 l/m 1,5 km/h (1 Bft) 0,20 h 0,00 h 4,4 km/h (1 Bft)
07.05.2012 11:00 18,0 C 10,2 C 0,7 UV-I 3,8 C 52 % 82 % 99 % 1018,0 hPa 0,0 l/m 1,7 km/h (1 Bft) 1,00 h 0,00 h 4,2 km/h (1 Bft)
07.05.2012 12:00 18,2 C 10,9 C 1,2 UV-I 4,4 C 52 % 78 % 100 % 1018,2 hPa 0,0 l/m 1,7 km/h (1 Bft) 1,00 h 0,00 h 4,9 km/h (1 Bft)
07.05.2012 13:00 18,5 C 12,0 C 1,8 UV-I 5,4 C 51 % 74 % 100 % 1018,0 hPa 0,0 l/m 2,5 km/h (1 Bft) 1,00 h 0,00 h 5,4 km/h (1 Bft)
07.05.2012 14:00 19,7 C 13,7 C 2,4 UV-I 6,1 C 49 % 69 % 100 % 1017,2 hPa 0,0 l/m 4,5 km/h (1 Bft) 1,00 h 0,00 h 9,4 km/h (2 Bft)
07.05.2012 15:00 21,5 C 15,0 C 3,0 UV-I 6,6 C 45 % 64 % 100 % 1016,9 hPa 0,0 l/m 4,9 km/h (1 Bft) 1,00 h 0,00 h 10,9 km/h (2 Bft)
07.05.2012 16:00 22,8 C 15,5 C 3,4 UV-I 5,0 C 42 % 62 % 100 % 1016,3 hPa 0,0 l/m 5,7 km/h (1 Bft) 1,00 h 0,00 h 9,5 km/h (2 Bft)
07.05.2012 17:00 23,5 C 15,5 C 2,8 UV-I 5,4 C 40 % 60 % 100 % 1016,3 hPa 0,0 l/m 4,0 km/h (1 Bft) 1,00 h 0,00 h 9,2 km/h (2 Bft)
07.05.2012 18:00 22,7 C 14,5 C 0,6 UV-I 1,5 C 41 % 63 % 38 % 1016,7 hPa 0,0 l/m 2,7 km/h (1 Bft) 0,27 h 0,00 h 6,8 km/h (2 Bft)
07.05.2012 19:00 21,5 C 14,0 C 0,1 UV-I 0,0 C 43 % 65 % 1 % 1016,5 hPa 0,0 l/m 2,9 km/h (1 Bft) 0,00 h 0,00 h 6,4 km/h (2 Bft)
07.05.2012 20:00 20,4 C 13,2 C 0,0 UV-I 0,0 C 45 % 67 % 0 % 1016,2 hPa 0,0 l/m 1,4 km/h (1 Bft) 0,00 h 0,00 h 2,4 km/h (1 Bft)
07.05.2012 21:00 19,7 C 11,6 C 0,0 UV-I 0,0 C 47 % 72 % 0 % 1016,4 hPa 0,1 l/m 0,1 km/h (0 Bft) 0,00 h 0,00 h 0,5 km/h (0 Bft)
07.05.2012 22:00 19,1 C 10,0 C 0,0 UV-I 0,0 C 49 % 77 % 0 % 1016,4 hPa 0,0 l/m 0,0 km/h (0 Bft) 0,00 h 0,00 h 0,0 km/h (0 Bft)
07.05.2012 23:00 18,7 C 9,3 C 0,0 UV-I 0,0 C 50 % 81 % 0 % 1016,3 hPa 0,0 l/m 1,1 km/h (1 Bft) 0,00 h 0,00 h 3,8 km/h (1 Bft)
08.05.2012 00:00 18,5 C 9,1 C 0,0 UV-I 0,0 C 51 % 83 % 0 % 1016,2 hPa 0,0 l/m 2,1 km/h (1 Bft) 0,00 h 0,00 h 5,6 km/h (1 Bft)
08.05.2012 01:00 18,3 C 9,2 C 0,0 UV-I 0,0 C 51 % 85 % 0 % 1015,7 hPa 0,0 l/m 4,7 km/h (1 Bft) 0,00 h 0,00 h 9,3 km/h (2 Bft)
08.05.2012 02:00 18,2 C 9,0 C 0,0 UV-I 0,0 C 52 % 87 % 0 % 1015,3 hPa 0,0 l/m 4,8 km/h (1 Bft) 0,00 h 0,00 h 8,3 km/h (2 Bft)
08.05.2012 03:00 18,1 C 8,3 C 0,0 UV-I 0,0 C 52 % 89 % 0 % 1014,9 hPa 0,0 l/m 3,4 km/h (1 Bft) 0,00 h 0,00 h 6,5 km/h (2 Bft)
08.05.2012 04:00 18,0 C 7,9 C 0,0 UV-I 0,0 C 53 % 91 % 0 % 1014,7 hPa 0,0 l/m 4,8 km/h (1 Bft) 0,00 h 0,03 h 8,9 km/h (2 Bft)
08.05.2012 05:00 17,9 C 7,6 C 0,0 UV-I 0,0 C 53 % 92 % 0 % 1014,2 hPa 0,0 l/m 5,9 km/h (2 Bft) 0,00 h 0,00 h 9,0 km/h (2 Bft)
08.05.2012 06:00 17,8 C 7,7 C 0,0 UV-I 0,0 C 53 % 93 % 0 % 1013,6 hPa 0,0 l/m 7,7 km/h (2 Bft) 0,00 h 0,00 h 12,3 km/h (3 Bft)
08.05.2012 07:00 17,8 C 8,5 C 0,0 UV-I 0,0 C 53 % 93 % 1 % 1013,2 hPa 0,0 l/m 7,3 km/h (2 Bft) 0,00 h 0,00 h 12,0 km/h (2 Bft)
08.05.2012 08:00 17,8 C 10,6 C 0,4 UV-I 2,5 C 54 % 92 % 57 % 1012,7 hPa 0,0 l/m 8,6 km/h (2 Bft) 0,50 h 0,00 h 13,9 km/h (3 Bft)
08.05.2012 09:00 18,0 C 13,8 C 2,4 UV-I 6,7 C 54 % 86 % 100 % 1012,4 hPa 0,0 l/m 7,7 km/h (2 Bft) 1,00 h 0,00 h 12,4 km/h (3 Bft)
08.05.2012 10:00 18,3 C 16,5 C 2,4 UV-I 4,9 C 55 % 74 % 99 % 1012,1 hPa 0,0 l/m 7,1 km/h (2 Bft) 1,00 h 0,00 h 11,4 km/h (2 Bft)
08.05.2012 11:00 18,9 C 17,6 C 1,4 UV-I 3,2 C 54 % 68 % 89 % 1011,7 hPa 0,0 l/m 4,5 km/h (1 Bft) 0,80 h 0,00 h 7,9 km/h (2 Bft)
08.05.2012 12:00 19,8 C 19,5 C 2,4 UV-I 4,9 C 51 % 60 % 100 % 1011,0 hPa 0,0 l/m 5,7 km/h (1 Bft) 1,00 h 0,00 h 11,6 km/h (2 Bft)
08.05.2012 13:00 20,4 C 21,2 C 2,8 UV-I 4,9 C 50 % 52 % 98 % 1010,0 hPa 0,0 l/m 9,9 km/h (2 Bft) 0,93 h 0,00 h 17,0 km/h (3 Bft)
08.05.2012 14:00 20,8 C 20,7 C 1,0 UV-I 1,6 C 48 % 51 % 46 % 1009,7 hPa 0,0 l/m 6,6 km/h (2 Bft) 0,00 h 0,00 h 10,7 km/h (2 Bft)
08.05.2012 15:00 20,8 C 20,8 C 0,7 UV-I 1,3 C 47 % 52 % 38 % 1009,1 hPa 0,1 l/m 4,7 km/h (1 Bft) 0,00 h 0,00 h 8,2 km/h (2 Bft)
08.05.2012 16:00 20,8 C 20,9 C 0,5 UV-I 1,0 C 48 % 53 % 30 % 1008,7 hPa 0,0 l/m 4,0 km/h (1 Bft) 0,00 h 0,00 h 8,1 km/h (2 Bft)
08.05.2012 17:00 20,7 C 20,8 C 0,3 UV-I 0,8 C 49 % 54 % 21 % 1008,6 hPa 0,0 l/m 3,3 km/h (1 Bft) 0,00 h 0,00 h 8,6 km/h (2 Bft)
08.05.2012 18:00 20,7 C 20,5 C 0,0 UV-I 0,1 C 49 % 56 % 3 % 1008,8 hPa 0,0 l/m 4,5 km/h (1 Bft) 0,00 h 0,00 h 9,6 km/h (2 Bft)
08.05.2012 19:00 20,6 C 20,1 C 0,0 UV-I 0,1 C 50 % 57 % 2 % 1008,8 hPa 0,0 l/m 3,4 km/h (1 Bft) 0,00 h 0,00 h 8,5 km/h (2 Bft)
08.05.2012 20:00 20,6 C 19,5 C 0,0 UV-I 0,0 C 50 % 61 % 0 % 1008,7 hPa 0,0 l/m 1,9 km/h (1 Bft) 0,00 h 0,00 h 4,8 km/h (1 Bft)
08.05.2012 21:00 20,5 C 18,5 C 0,0 UV-I 0,0 C 51 % 65 % 0 % 1009,4 hPa 0,0 l/m 5,5 km/h (1 Bft) 0,00 h 0,00 h 10,1 km/h (2 Bft)
08.05.2012 22:00 20,4 C 17,8 C 0,0 UV-I 0,0 C 52 % 69 % 0 % 1009,7 hPa 0,0 l/m 3,3 km/h (1 Bft) 0,00 h 0,00 h 6,9 km/h (2 Bft)
08.05.2012 23:00 20,3 C 17,2 C 0,0 UV-I 0,0 C 52 % 73 % 0 % 1009,7 hPa 0,0 l/m 2,9 km/h (1 Bft) 0,00 h 0,00 h 5,8 km/h (2 Bft)
09.05.2012 00:00 20,2 C 16,6 C 0,0 UV-I 0,0 C 53 % 76 % 0 % 1009,7 hPa 0,0 l/m 1,9 km/h (1 Bft) 0,00 h 0,00 h 4,0 km/h (1 Bft)
09.05.2012 01:00 20,2 C 16,1 C 0,0 UV-I 0,0 C 54 % 78 % 0 % 1009,8 hPa 0,0 l/m 1,1 km/h (1 Bft) 0,00 h 0,00 h 3,0 km/h (1 Bft)
09.05.2012 02:00 20,0 C 14,8 C 0,0 UV-I 0,0 C 54 % 82 % 0 % 1009,8 hPa 0,0 l/m 0,8 km/h (0 Bft) 0,00 h 0,00 h 2,4 km/h (1 Bft)
09.05.2012 03:00 19,9 C 14,6 C 0,0 UV-I 0,0 C 55 % 84 % 0 % 1009,7 hPa 0,0 l/m 3,8 km/h (1 Bft) 0,00 h 0,00 h 7,7 km/h (2 Bft)
09.05.2012 04:00 19,8 C 14,0 C 0,0 UV-I 0,0 C 56 % 86 % 0 % 1009,4 hPa 0,0 l/m 2,4 km/h (1 Bft) 0,00 h 0,00 h 5,3 km/h (1 Bft)
09.05.2012 05:00 19,7 C 13,7 C 0,0 UV-I 0,0 C 56 % 88 % 0 % 1009,3 hPa 0,0 l/m 2,7 km/h (1 Bft) 0,00 h 0,00 h 6,6 km/h (2 Bft)
09.05.2012 06:00 19,6 C 14,0 C 0,0 UV-I 0,0 C 57 % 89 % 0 % 1009,4 hPa 0,0 l/m 2,9 km/h (1 Bft) 0,00 h 0,00 h 6,1 km/h (2 Bft)
09.05.2012 07:00 19,7 C 14,6 C 0,0 UV-I 0,2 C 57 % 89 % 6 % 1009,7 hPa 0,0 l/m 2,5 km/h (1 Bft) 0,00 h 0,00 h 5,8 km/h (2 Bft)
09.05.2012 08:00 19,9 C 15,3 C 0,1 UV-I 0,5 C 57 % 89 % 14 % 1010,0 hPa 0,0 l/m 3,6 km/h (1 Bft) 0,00 h 0,00 h 7,6 km/h (2 Bft)
09.05.2012 09:00 20,2 C 16,7 C 0,6 UV-I 1,8 C 58 % 88 % 51 % 1010,3 hPa 0,0 l/m 3,4 km/h (1 Bft) 0,00 h 0,00 h 7,7 km/h (2 Bft)
09.05.2012 10:00 20,5 C 17,8 C 0,7 UV-I 2,1 C 58 % 83 % 60 % 1010,8 hPa 0,0 l/m 5,5 km/h (1 Bft) 0,10 h 0,00 h 9,6 km/h (2 Bft)
09.05.2012 11:00 20,6 C 17,6 C 0,2 UV-I 0,7 C 58 % 82 % 21 % 1011,3 hPa 0,0 l/m 4,4 km/h (1 Bft) 0,00 h 0,13 h 8,0 km/h (2 Bft)
09.05.2012 12:00 20,8 C 18,2 C 1,1 UV-I 3,5 C 58 % 85 % 80 % 1011,7 hPa 0,0 l/m 3,5 km/h (1 Bft) 0,53 h 0,03 h 7,7 km/h (2 Bft)
09.05.2012 13:00 21,2 C 20,5 C 2,5 UV-I 5,6 C 58 % 74 % 100 % 1011,5 hPa 0,0 l/m 6,7 km/h (2 Bft) 1,00 h 0,00 h 13,6 km/h (3 Bft)
09.05.2012 14:00 21,9 C 20,2 C 1,7 UV-I 2,6 C 57 % 75 % 68 % 1010,9 hPa 0,1 l/m 6,7 km/h (2 Bft) 0,37 h 0,47 h 12,4 km/h (3 Bft)
09.05.2012 15:00 22,9 C 20,9 C 2,9 UV-I 5,0 C 56 % 74 % 99 % 1011,5 hPa 0,0 l/m 7,1 km/h (2 Bft) 1,00 h 0,00 h 12,8 km/h (3 Bft)
09.05.2012 16:00 23,4 C 21,0 C 2,9 UV-I 2,8 C 53 % 74 % 69 % 1012,0 hPa 1,4 l/m 4,5 km/h (1 Bft) 0,57 h 0,20 h 8,6 km/h (2 Bft)
09.05.2012 17:00 22,8 C 18,7 C 2,9 UV-I 0,4 C 56 % 86 % 12 % 1012,5 hPa 0,4 l/m 4,2 km/h (1 Bft) 0,00 h 0,23 h 7,5 km/h (2 Bft)
09.05.2012 18:00 22,4 C 19,2 C 2,9 UV-I 1,4 C 58 % 85 % 39 % 1013,3 hPa 0,0 l/m 3,8 km/h (1 Bft) 0,00 h 0,00 h 7,3 km/h (2 Bft)
09.05.2012 19:00 22,1 C 19,3 C 0,2 UV-I 0,1 C 58 % 79 % 2 % 1013,8 hPa 0,0 l/m 2,2 km/h (1 Bft) 0,00 h 0,13 h 5,5 km/h (1 Bft)
09.05.2012 20:00 21,6 C 18,3 C 0,0 UV-I 0,0 C 60 % 82 % 0 % 1014,4 hPa 0,0 l/m 0,1 km/h (0 Bft) 0,00 h 0,00 h 0,2 km/h (0 Bft)
09.05.2012 21:00 21,2 C 17,2 C 0,0 UV-I 0,0 C 62 % 85 % 0 % 1015,1 hPa 0,0 l/m 0,0 km/h (0 Bft) 0,00 h 0,00 h 0,0 km/h (0 Bft)
09.05.2012 22:00 20,9 C 16,4 C 0,0 UV-I 0,0 C 64 % 89 % 0 % 1015,5 hPa 0,0 l/m 0,6 km/h (0 Bft) 0,00 h 0,00 h 2,0 km/h (1 Bft)
09.05.2012 23:00 20,7 C 15,8 C 0,0 UV-I 0,0 C 65 % 91 % 0 % 1015,8 hPa 0,0 l/m 0,7 km/h (0 Bft) 0,00 h 0,00 h 2,3 km/h (1 Bft)
10.05.2012 00:00 20,5 C 15,3 C 0,0 UV-I 0,0 C 65 % 92 % 0 % 1016,0 hPa 0,0 l/m 1,1 km/h (1 Bft) 0,00 h 0,00 h 2,6 km/h (1 Bft)
10.05.2012 01:00 20,4 C 14,8 C 0,0 UV-I 0,0 C 65 % 93 % 0 % 1016,2 hPa 0,0 l/m 1,9 km/h (1 Bft) 0,00 h 0,00 h 4,6 km/h (1 Bft)
10.05.2012 02:00 20,2 C 14,7 C 0,0 UV-I 0,0 C 65 % 93 % 0 % 1015,9 hPa 0,0 l/m 3,5 km/h (1 Bft) 0,00 h 0,00 h 6,9 km/h (2 Bft)
10.05.2012 03:00 20,1 C 14,7 C 0,0 UV-I 0,0 C 64 % 93 % 0 % 1015,8 hPa 0,0 l/m 4,2 km/h (1 Bft) 0,00 h 0,00 h 8,1 km/h (2 Bft)
10.05.2012 04:00 20,1 C 15,1 C 0,0 UV-I 0,0 C 65 % 93 % 0 % 1015,6 hPa 0,0 l/m 4,0 km/h (1 Bft) 0,00 h 0,00 h 7,9 km/h (2 Bft)
10.05.2012 05:00 20,0 C 15,5 C 0,0 UV-I 0,0 C 65 % 92 % 0 % 1015,2 hPa 0,0 l/m 5,6 km/h (1 Bft) 0,00 h 0,00 h 9,8 km/h (2 Bft)
10.05.2012 06:00 20,0 C 15,7 C 0,0 UV-I 0,0 C 65 % 92 % 0 % 1015,0 hPa 0,0 l/m 5,6 km/h (1 Bft) 0,00 h 0,00 h 9,5 km/h (2 Bft)
10.05.2012 07:00 20,0 C 16,1 C 0,0 UV-I 0,1 C 66 % 91 % 4 % 1015,1 hPa 0,0 l/m 5,5 km/h (1 Bft) 0,00 h 0,03 h 10,2 km/h (2 Bft)
10.05.2012 08:00 20,1 C 16,9 C 0,0 UV-I 0,5 C 67 % 90 % 16 % 1015,4 hPa 0,0 l/m 6,5 km/h (2 Bft) 0,00 h 0,00 h 12,0 km/h (2 Bft)
10.05.2012 09:00 20,4 C 17,9 C 0,3 UV-I 1,0 C 67 % 89 % 27 % 1015,4 hPa 0,0 l/m 5,6 km/h (1 Bft) 0,00 h 0,00 h 10,3 km/h (2 Bft)
10.05.2012 10:00 20,7 C 19,7 C 1,4 UV-I 2,8 C 67 % 85 % 77 % 1015,0 hPa 0,0 l/m 7,0 km/h (2 Bft) 0,60 h 0,00 h 12,4 km/h (3 Bft)
10.05.2012 11:00 21,2 C 21,4 C 0,9 UV-I 1,9 C 66 % 79 % 54 % 1014,8 hPa 0,0 l/m 6,5 km/h (2 Bft) 0,17 h 0,00 h 10,8 km/h (2 Bft)
10.05.2012 12:00 21,5 C 22,5 C 0,9 UV-I 1,8 C 66 % 75 % 52 % 1014,9 hPa 0,0 l/m 4,8 km/h (1 Bft) 0,10 h 0,10 h 10,7 km/h (2 Bft)
10.05.2012 13:00 21,6 C 21,7 C 0,4 UV-I 0,0 C 67 % 78 % 0 % 1015,1 hPa 0,2 l/m 3,8 km/h (1 Bft) 0,00 h 0,17 h 7,5 km/h (2 Bft)
10.05.2012 14:00 21,7 C 22,4 C 1,1 UV-I 1,4 C 68 % 80 % 40 % 1014,8 hPa 0,0 l/m 2,8 km/h (1 Bft) 0,00 h 0,13 h 6,3 km/h (2 Bft)
10.05.2012 15:00 22,0 C 23,8 C 1,0 UV-I 1,8 C 66 % 74 % 53 % 1014,9 hPa 0,0 l/m 5,8 km/h (2 Bft) 0,00 h 0,03 h 9,9 km/h (2 Bft)
10.05.2012 16:00 22,3 C 24,8 C 1,0 UV-I 2,2 C 66 % 71 % 62 % 1014,5 hPa 0,0 l/m 3,4 km/h (1 Bft) 0,10 h 0,00 h 6,7 km/h (2 Bft)
10.05.2012 17:00 22,4 C 25,1 C 0,4 UV-I 0,9 C 65 % 69 % 27 % 1014,2 hPa 0,0 l/m 2,1 km/h (1 Bft) 0,00 h 0,00 h 6,1 km/h (2 Bft)
10.05.2012 18:00 22,4 C 25,1 C 0,3 UV-I 0,8 C 65 % 68 % 22 % 1013,8 hPa 0,0 l/m 2,0 km/h (1 Bft) 0,00 h 0,00 h 4,3 km/h (1 Bft)
10.05.2012 19:00 22,5 C 25,1 C 0,1 UV-I 0,3 C 64 % 68 % 9 % 1013,7 hPa 0,0 l/m 1,6 km/h (1 Bft) 0,00 h 0,00 h 3,7 km/h (1 Bft)
10.05.2012 20:00 22,4 C 24,4 C 0,0 UV-I 0,0 C 64 % 70 % 0 % 1013,4 hPa 0,0 l/m 0,3 km/h (0 Bft) 0,00 h 0,00 h 0,8 km/h (0 Bft)
10.05.2012 21:00 22,2 C 24,0 C 0,0 UV-I 0,0 C 64 % 71 % 0 % 1013,5 hPa 0,0 l/m 2,2 km/h (1 Bft) 0,00 h 0,00 h 5,8 km/h (2 Bft)
10.05.2012 22:00 22,2 C 23,2 C 0,0 UV-I 0,0 C 65 % 74 % 0 % 1014,5 hPa 0,0 l/m 1,3 km/h (1 Bft) 0,00 h 0,00 h 3,8 km/h (1 Bft)
10.05.2012 23:00 22,1 C 22,6 C 0,0 UV-I 0,0 C 65 % 74 % 0 % 1015,1 hPa 0,0 l/m 2,7 km/h (1 Bft) 0,00 h 0,00 h 7,4 km/h (2 Bft)
11.05.2012 00:00 22,1 C 22,7 C 0,0 UV-I 0,0 C 65 % 68 % 0 % 1015,4 hPa 0,0 l/m 1,6 km/h (1 Bft) 0,00 h 0,00 h 3,4 km/h (1 Bft)
11.05.2012 01:00 22,1 C 21,8 C 0,0 UV-I 0,0 C 64 % 71 % 0 % 1015,8 hPa 0,0 l/m 1,1 km/h (1 Bft) 0,00 h 0,00 h 3,5 km/h (1 Bft)
11.05.2012 02:00 22,0 C 21,4 C 0,0 UV-I 0,0 C 64 % 73 % 0 % 1015,5 hPa 0,0 l/m 0,9 km/h (0 Bft) 0,00 h 0,00 h 2,3 km/h (1 Bft)
11.05.2012 03:00 22,0 C 20,9 C 0,0 UV-I 0,0 C 64 % 75 % 0 % 1015,7 hPa 0,0 l/m 1,1 km/h (1 Bft) 0,00 h 0,00 h 3,7 km/h (1 Bft)
11.05.2012 04:00 22,0 C 20,4 C 0,0 UV-I 0,0 C 64 % 76 % 0 % 1016,1 hPa 0,0 l/m 1,6 km/h (1 Bft) 0,00 h 0,00 h 4,3 km/h (1 Bft)
11.05.2012 05:00 21,9 C 19,7 C 0,0 UV-I 0,0 C 64 % 77 % 0 % 1016,3 hPa 0,0 l/m 0,6 km/h (0 Bft) 0,00 h 0,00 h 1,9 km/h (1 Bft)
11.05.2012 06:00 21,9 C 18,8 C 0,0 UV-I 0,0 C 64 % 80 % 0 % 1017,0 hPa 0,0 l/m 0,1 km/h (0 Bft) 0,00 h 0,00 h 0,3 km/h (0 Bft)
11.05.2012 07:00 21,8 C 18,3 C 0,0 UV-I 0,0 C 64 % 85 % 0 % 1017,7 hPa 0,0 l/m 0,4 km/h (0 Bft) 0,00 h 0,03 h 0,9 km/h (0 Bft)
11.05.2012 08:00 21,9 C 18,3 C 0,1 UV-I 0,3 C 65 % 88 % 10 % 1017,8 hPa 0,0 l/m 0,2 km/h (0 Bft) 0,00 h 0,00 h 0,5 km/h (0 Bft)
11.05.2012 09:00 22,0 C 19,3 C 0,4 UV-I 1,6 C 65 % 87 % 47 % 1017,8 hPa 0,0 l/m 0,4 km/h (0 Bft) 0,00 h 0,03 h 1,6 km/h (1 Bft)
11.05.2012 10:00 22,2 C 19,5 C 0,2 UV-I 0,2 C 64 % 86 % 7 % 1018,3 hPa 0,1 l/m 1,3 km/h (1 Bft) 0,00 h 0,33 h 4,4 km/h (1 Bft)
11.05.2012 11:00 22,2 C 19,3 C 0,1 UV-I 0,2 C 65 % 88 % 5 % 1019,0 hPa 0,1 l/m 1,3 km/h (1 Bft) 0,00 h 0,53 h 4,2 km/h (1 Bft)
11.05.2012 12:00 22,1 C 18,6 C 0,0 UV-I 0,0 C 65 % 90 % 0 % 1019,7 hPa 0,1 l/m 3,6 km/h (1 Bft) 0,00 h 0,20 h 9,3 km/h (2 Bft)
11.05.2012 13:00 22,1 C 18,2 C 0,4 UV-I 0,0 C 66 % 90 % 1 % 1019,7 hPa 0,2 l/m 3,2 km/h (1 Bft) 0,00 h 0,23 h 7,7 km/h (2 Bft)
11.05.2012 14:00 22,1 C 17,8 C 0,3 UV-I 0,1 C 66 % 91 % 3 % 1019,9 hPa 0,1 l/m 2,1 km/h (1 Bft) 0,00 h 0,17 h 5,4 km/h (1 Bft)
11.05.2012 15:00 22,1 C 17,8 C 0,3 UV-I 0,6 C 65 % 88 % 18 % 1019,9 hPa 0,0 l/m 3,9 km/h (1 Bft) 0,00 h 0,00 h 8,5 km/h (2 Bft)
11.05.2012 16:00 22,3 C 17,8 C 1,3 UV-I 2,3 C 64 % 78 % 62 % 1020,3 hPa 0,0 l/m 6,9 km/h (2 Bft) 0,43 h 0,00 h 15,9 km/h (3 Bft)
11.05.2012 17:00 22,7 C 17,5 C 0,5 UV-I 1,4 C 60 % 66 % 39 % 1021,2 hPa 0,0 l/m 6,6 km/h (2 Bft) 0,10 h 0,00 h 13,0 km/h (3 Bft)
11.05.2012 18:00 22,3 C 16,1 C 0,0 UV-I 0,1 C 59 % 70 % 3 % 1022,1 hPa 0,0 l/m 4,4 km/h (1 Bft) 0,00 h 0,00 h 8,9 km/h (2 Bft)
11.05.2012 19:00 21,9 C 15,5 C 0,0 UV-I 0,0 C 59 % 74 % 1 % 1022,6 hPa 0,0 l/m 3,9 km/h (1 Bft) 0,00 h 0,00 h 10,2 km/h (2 Bft)
11.05.2012 20:00 21,6 C 14,6 C 0,0 UV-I 0,0 C 59 % 74 % 0 % 1023,4 hPa 0,0 l/m 3,8 km/h (1 Bft) 0,00 h 0,00 h 8,6 km/h (2 Bft)
11.05.2012 21:00 21,3 C 14,0 C 0,0 UV-I 0,0 C 59 % 75 % 0 % 1024,4 hPa 0,0 l/m 1,9 km/h (1 Bft) 0,00 h 0,00 h 5,6 km/h (1 Bft)
11.05.2012 22:00 21,0 C 13,2 C 0,0 UV-I 0,0 C 59 % 77 % 0 % 1025,2 hPa 0,0 l/m 2,0 km/h (1 Bft) 0,00 h 0,00 h 6,9 km/h (2 Bft)
11.05.2012 23:00 20,8 C 12,4 C 0,0 UV-I 0,0 C 59 % 76 % 0 % 1026,0 hPa 0,0 l/m 5,3 km/h (1 Bft) 0,00 h 0,00 h 11,4 km/h (2 Bft)
12.05.2012 00:00 20,5 C 10,8 C 0,0 UV-I 0,0 C 58 % 77 % 0 % 1026,7 hPa 0,0 l/m 1,6 km/h (1 Bft) 0,00 h 0,00 h 4,3 km/h (1 Bft)
12.05.2012 01:00 20,2 C 9,6 C 0,0 UV-I 0,0 C 58 % 81 % 0 % 1027,2 hPa 0,0 l/m 1,6 km/h (1 Bft) 0,00 h 0,00 h 4,5 km/h (1 Bft)
12.05.2012 02:00 19,9 C 8,6 C 0,0 UV-I 0,0 C 58 % 84 % 0 % 1027,8 hPa 0,0 l/m 1,4 km/h (1 Bft) 0,00 h 0,00 h 4,3 km/h (1 Bft)
12.05.2012 03:00 19,7 C 7,7 C 0,0 UV-I 0,0 C 58 % 87 % 0 % 1028,6 hPa 0,0 l/m 0,3 km/h (0 Bft) 0,00 h 0,00 h 0,6 km/h (0 Bft)
12.05.2012 04:00 19,6 C 7,5 C 0,0 UV-I 0,0 C 58 % 89 % 0 % 1029,1 hPa 0,0 l/m 0,5 km/h (0 Bft) 0,00 h 0,00 h 2,4 km/h (1 Bft)
12.05.2012 05:00 19,4 C 7,4 C 0,0 UV-I 0,0 C 57 % 90 % 0 % 1029,8 hPa 0,0 l/m 0,4 km/h (0 Bft) 0,00 h 0,00 h 1,5 km/h (1 Bft)
12.05.2012 06:00 19,2 C 6,8 C 0,0 UV-I 0,0 C 57 % 91 % 0 % 1030,4 hPa 0,0 l/m 0,2 km/h (0 Bft) 0,00 h 0,00 h 1,1 km/h (1 Bft)
12.05.2012 07:00 19,2 C 7,5 C 0,0 UV-I 0,0 C 57 % 92 % 0 % 1031,3 hPa 0,0 l/m 1,2 km/h (1 Bft) 0,00 h 0,00 h 3,8 km/h (1 Bft)
12.05.2012 08:00 19,2 C 8,7 C 0,6 UV-I 3,4 C 57 % 90 % 57 % 1031,6 hPa 0,0 l/m 5,2 km/h (1 Bft) 0,53 h 0,00 h 10,5 km/h (2 Bft)
12.05.2012 09:00 19,3 C 10,2 C 1,3 UV-I 4,9 C 57 % 83 % 99 % 1032,3 hPa 0,0 l/m 7,6 km/h (2 Bft) 1,00 h 0,00 h 16,1 km/h (3 Bft)
12.05.2012 10:00 19,5 C 10,3 C 0,5 UV-I 1,9 C 56 % 80 % 56 % 1032,7 hPa 0,0 l/m 8,5 km/h (2 Bft) 0,03 h 0,00 h 13,3 km/h (3 Bft)
12.05.2012 11:00 19,7 C 10,5 C 1,3 UV-I 3,0 C 57 % 79 % 65 % 1033,2 hPa 0,0 l/m 8,5 km/h (2 Bft) 0,50 h 0,17 h 12,6 km/h (3 Bft)
12.05.2012 12:00 19,9 C 11,6 C 2,0 UV-I 5,2 C 57 % 75 % 100 % 1033,4 hPa 0,0 l/m 6,7 km/h (2 Bft) 1,00 h 0,00 h 12,4 km/h (3 Bft)
12.05.2012 13:00 20,6 C 12,7 C 2,0 UV-I 5,4 C 55 % 70 % 100 % 1033,5 hPa 0,0 l/m 7,5 km/h (2 Bft) 1,00 h 0,00 h 12,9 km/h (3 Bft)
12.05.2012 14:00 21,0 C 12,4 C 1,0 UV-I 2,4 C 52 % 70 % 66 % 1033,8 hPa 0,0 l/m 5,5 km/h (1 Bft) 0,27 h 0,07 h 9,9 km/h (2 Bft)
12.05.2012 15:00 21,1 C 12,2 C 0,9 UV-I 1,6 C 51 % 69 % 44 % 1033,8 hPa 0,9 l/m 4,0 km/h (1 Bft) 0,30 h 0,13 h 7,9 km/h (2 Bft)
12.05.2012 16:00 21,5 C 12,1 C 0,8 UV-I 1,7 C 51 % 73 % 47 % 1033,5 hPa 0,2 l/m 6,1 km/h (2 Bft) 0,20 h 0,13 h 11,5 km/h (2 Bft)
12.05.2012 17:00 21,1 C 11,7 C 0,6 UV-I 0,7 C 50 % 70 % 19 % 1033,9 hPa 0,0 l/m 10,3 km/h (2 Bft) 0,00 h 0,00 h 15,5 km/h (3 Bft)
12.05.2012 18:00 20,9 C 12,2 C 0,3 UV-I 1,1 C 50 % 66 % 32 % 1033,9 hPa 0,0 l/m 10,4 km/h (2 Bft) 0,00 h 0,00 h 16,6 km/h (3 Bft)
12.05.2012 19:00 20,3 C 12,0 C 0,1 UV-I 0,3 C 50 % 66 % 7 % 1033,9 hPa 0,0 l/m 10,3 km/h (2 Bft) 0,00 h 0,00 h 14,4 km/h (3 Bft)
12.05.2012 20:00 19,9 C 11,4 C 0,0 UV-I 0,0 C 50 % 65 % 0 % 1034,2 hPa 0,0 l/m 9,1 km/h (2 Bft) 0,00 h 0,00 h 13,9 km/h (3 Bft)
12.05.2012 21:00 19,5 C 10,1 C 0,0 UV-I 0,0 C 51 % 70 % 0 % 1034,6 hPa 0,0 l/m 4,7 km/h (1 Bft) 0,00 h 0,00 h 7,2 km/h (2 Bft)
12.05.2012 22:00 19,2 C 8,3 C 0,0 UV-I 0,0 C 51 % 75 % 0 % 1035,0 hPa 0,0 l/m 0,3 km/h (0 Bft) 0,00 h 0,00 h 1,0 km/h (0 Bft)
12.05.2012 23:00 18,9 C 7,0 C 0,0 UV-I 0,0 C 51 % 79 % 0 % 1035,3 hPa 0,0 l/m 0,0 km/h (0 Bft) 0,00 h 0,00 h 0,0 km/h (0 Bft)
13.05.2012 00:00 18,6 C 5,7 C 0,0 UV-I 0,0 C 51 % 83 % 0 % 1035,3 hPa 0,0 l/m 0,0 km/h (0 Bft) 0,00 h 0,00 h 0,0 km/h (0 Bft)
13.05.2012 01:00 18,4 C 4,7 C 0,0 UV-I 0,0 C 51 % 86 % 0 % 1035,2 hPa 0,0 l/m 0,0 km/h (0 Bft) 0,00 h 0,00 h 0,0 km/h (0 Bft)
13.05.2012 02:00 18,2 C 4,0 C 0,0 UV-I 0,0 C 51 % 88 % 0 % 1034,8 hPa 0,0 l/m 0,0 km/h (0 Bft) 0,00 h 0,00 h 0,0 km/h (0 Bft)
13.05.2012 03:00 18,1 C 3,5 C 0,0 UV-I 0,0 C 50 % 90 % 0 % 1034,4 hPa 0,0 l/m 0,0 km/h (0 Bft) 0,00 h 0,00 h 0,0 km/h (0 Bft)
13.05.2012 04:00 17,9 C 3,1 C 0,0 UV-I 0,0 C 50 % 91 % 0 % 1033,9 hPa 0,0 l/m 0,0 km/h (0 Bft) 0,00 h 0,00 h 0,0 km/h (0 Bft)
13.05.2012 05:00 17,8 C 2,7 C 0,0 UV-I 0,0 C 50 % 92 % 0 % 1033,8 hPa 0,0 l/m 0,0 km/h (0 Bft) 0,00 h 0,07 h 0,0 km/h (0 Bft)
13.05.2012 06:00 17,6 C 2,4 C 0,0 UV-I 0,0 C 50 % 93 % 0 % 1033,4 hPa 0,0 l/m 0,0 km/h (0 Bft) 0,00 h 0,03 h 0,0 km/h (0 Bft)
13.05.2012 07:00 17,6 C 3,4 C 0,1 UV-I 0,0 C 50 % 94 % 0 % 1033,3 hPa 0,0 l/m 1,1 km/h (1 Bft) 0,00 h 0,00 h 2,5 km/h (1 Bft)
13.05.2012 08:00 17,6 C 5,9 C 0,6 UV-I 4,1 C 50 % 93 % 56 % 1033,5 hPa 0,0 l/m 1,7 km/h (1 Bft) 0,53 h 0,00 h 4,6 km/h (1 Bft)
13.05.2012 09:00 17,8 C 8,5 C 2,5 UV-I 8,8 C 50 % 84 % 100 % 1033,3 hPa 0,0 l/m 2,2 km/h (1 Bft) 1,00 h 0,00 h 4,9 km/h (1 Bft)
13.05.2012 10:00 18,0 C 9,7 C 3,6 UV-I 8,8 C 50 % 70 % 100 % 1032,8 hPa 0,0 l/m 6,4 km/h (2 Bft) 1,00 h 0,00 h 11,1 km/h (2 Bft)
13.05.2012 11:00 18,3 C 10,6 C 2,5 UV-I 6,0 C 49 % 62 % 100 % 1032,0 hPa 0,0 l/m 5,0 km/h (1 Bft) 1,00 h 0,00 h 9,9 km/h (2 Bft)
13.05.2012 12:00 18,5 C 11,1 C 1,9 UV-I 5,4 C 48 % 60 % 100 % 1031,6 hPa 0,0 l/m 3,7 km/h (1 Bft) 1,00 h 0,00 h 7,6 km/h (2 Bft)
13.05.2012 13:00 18,9 C 12,4 C 2,5 UV-I 7,7 C 47 % 56 % 100 % 1031,1 hPa 0,0 l/m 5,0 km/h (1 Bft) 1,00 h 0,00 h 9,6 km/h (2 Bft)
13.05.2012 14:00 20,5 C 13,7 C 2,5 UV-I 6,7 C 43 % 52 % 100 % 1029,5 hPa 0,0 l/m 6,7 km/h (2 Bft) 1,00 h 0,00 h 12,0 km/h (2 Bft)
13.05.2012 15:00 22,1 C 14,0 C 2,7 UV-I 5,9 C 39 % 51 % 100 % 1028,9 hPa 0,0 l/m 5,5 km/h (1 Bft) 1,00 h 0,00 h 11,2 km/h (2 Bft)
13.05.2012 16:00 23,5 C 14,4 C 4,0 UV-I 7,0 C 36 % 50 % 100 % 1027,6 hPa 0,0 l/m 7,1 km/h (2 Bft) 1,00 h 0,00 h 11,8 km/h (2 Bft)
13.05.2012 17:00 23,9 C 14,3 C 2,9 UV-I 5,4 C 35 % 50 % 100 % 1026,9 hPa 0,0 l/m 5,4 km/h (1 Bft) 1,00 h 0,00 h 8,8 km/h (2 Bft)
13.05.2012 18:00 23,0 C 13,8 C 0,8 UV-I 2,8 C 36 % 51 % 69 % 1027,1 hPa 0,0 l/m 4,8 km/h (1 Bft) 0,57 h 0,00 h 8,7 km/h (2 Bft)
13.05.2012 19:00 21,7 C 13,2 C 0,2 UV-I 0,0 C 38 % 52 % 0 % 1026,4 hPa 0,0 l/m 3,3 km/h (1 Bft) 0,00 h 0,00 h 6,4 km/h (2 Bft)
13.05.2012 20:00 20,7 C 12,6 C 0,0 UV-I 0,0 C 40 % 54 % 0 % 1026,1 hPa 0,0 l/m 1,3 km/h (1 Bft) 0,00 h 0,00 h 2,3 km/h (1 Bft)
13.05.2012 21:00 20,0 C 10,9 C 0,0 UV-I 0,0 C 41 % 61 % 0 % 1026,0 hPa 0,0 l/m 0,0 km/h (0 Bft) 0,00 h 0,00 h 0,0 km/h (0 Bft)
13.05.2012 22:00 19,4 C 8,7 C 0,0 UV-I 0,0 C 43 % 69 % 0 % 1025,5 hPa 0,0 l/m 0,0 km/h (0 Bft) 0,00 h 0,00 h 0,0 km/h (0 Bft)
13.05.2012 23:00 19,0 C 7,3 C 0,0 UV-I 0,0 C 44 % 76 % 0 % 1025,3 hPa 0,0 l/m 0,0 km/h (0 Bft) 0,00 h 0,00 h 0,0 km/h (0 Bft)
Min-Datum _ 07.05.12 13.05.12 07.05.12 07.05.12 13.05.12 13.05.12 07.05.12 08.05.12 - 07.05.12 - - 07.05.12
_ Min-Zeit 05:46 06:16 00:00 00:00 16:46 15:38 00:00 16:00 - 10:04 - - 01:16
Minimum _ 17,2 C 2,3 C 0,0 UV-I 0,0 C 34 % 48 % 0 % 1008,6 hPa - 0,0 km/h (0 Bft) - - 0,0 km/h (0 Bft)
Max-Datum _ 13.05.12 10.05.12 13.05.12 13.05.12 10.05.12 13.05.12 07.05.12 13.05.12 09.05.12 12.05.12 07.05.12 08.05.12 11.05.12
_ Max-Zeit 16:56 19:10 10:38 10:04 13:52 08:02 09:10 00:38 16:46 11:32 09:06 04:12 16:44
Maximum _ 24,0 C 25,5 C 5,0 UV-I 10,8 C 68 % 95 % 100 % 1035,4 hPa 1,4 l/m 14,5 km/h
W (3 Bft)
0,03 h 0,03 h 41,8 km/h
S (6 Bft)
Durchschnitt _ 20,3 C 14,2 C 0,6 UV-I 1,4 C 55 % 78 % 27 % 1019,6 hPa #4,2 l/m 3,5 km/h (1 Bft) #33:16 h #3:50 h 6,9 km/h (2 Bft)
© 2012 W. Hausmann